Time;durP1;ratioP1;P1;durP2;ratioP2;P2;SDS_P1;SDS_P2;PMS_P1;PMS_P2;Temp;Humidity;BMP_temperature;BMP_pressure;BME280_temperature;BME280_humidity;BME280_pressure;Samples;Min_cycle;Max_cycle;Signal;HPM_P1;HPM_P2
2022/07/15 00:02:12;;;;;;;9.48;2.65;;;12.10;99.90;;;;;;5023000;28;20619;-94
2022/07/15 00:04:41;;;;;;;7.10;2.67;;;12.10;99.90;;;;;;4985876;28;20100;-94
2022/07/15 00:07:08;;;;;;;5.55;2.60;;;12.00;99.90;;;;;;4974157;28;20045;-94
2022/07/15 00:12:19;;;;;;;6.82;2.28;;;11.90;99.90;;;;;;4996429;28;20133;-94
2022/07/15 00:14:49;;;;;;;8.48;2.80;;;11.90;99.90;;;;;;5022536;28;20124;-94
2022/07/15 00:17:19;;;;;;;7.15;2.80;;;11.80;99.90;;;;;;5023993;28;20111;-94
2022/07/15 00:19:46;;;;;;;5.40;2.75;;;11.70;99.90;;;;;;5017382;28;20128;-93
2022/07/15 00:22:13;;;;;;;6.63;3.00;;;11.70;99.90;;;;;;4998094;28;20158;-95
2022/07/15 00:24:40;;;;;;;4.90;2.72;;;11.60;99.90;;;;;;4949884;28;20525;-94
2022/07/15 00:27:07;;;;;;;6.57;2.67;;;11.60;99.90;;;;;;5001323;28;20049;-93
2022/07/15 00:29:34;;;;;;;7.35;3.05;;;11.60;99.90;;;;;;5006544;28;20409;-93
2022/07/15 00:32:01;;;;;;;9.50;2.90;;;11.70;99.90;;;;;;4985225;28;20046;-94
2022/07/15 00:34:31;;;;;;;6.65;3.17;;;11.80;99.90;;;;;;4971022;28;20129;-93
2022/07/15 00:36:58;;;;;;;7.97;3.33;;;11.70;99.90;;;;;;5015426;28;20053;-94
2022/07/15 00:39:25;;;;;;;6.72;3.25;;;11.80;99.90;;;;;;5022602;28;20041;-93
2022/07/15 00:41:51;;;;;;;10.93;3.17;;;11.90;99.90;;;;;;5005645;28;20045;-93
2022/07/15 00:44:17;;;;;;;10.07;3.58;;;12.00;99.90;;;;;;4986892;28;20187;-93
2022/07/15 00:46:44;;;;;;;7.43;2.83;;;12.00;99.90;;;;;;5002831;28;20125;-93
2022/07/15 00:49:11;;;;;;;9.85;3.08;;;12.10;99.90;;;;;;4987224;28;20654;-94
2022/07/15 00:51:46;;;;;;;8.10;3.53;;;12.20;99.90;;;;;;4973029;28;20088;-93
2022/07/15 00:54:14;;;;;;;8.65;3.15;;;12.20;99.90;;;;;;5000484;28;20049;-94
2022/07/15 00:56:50;;;;;;;9.63;3.42;;;12.30;99.90;;;;;;4990038;28;20333;-94
2022/07/15 00:59:22;;;;;;;8.30;3.10;;;12.40;99.90;;;;;;5041096;28;20084;-93
2022/07/15 01:01:51;;;;;;;9.80;3.50;;;12.30;99.90;;;;;;5014528;28;20054;-94
2022/07/15 01:04:18;;;;;;;10.80;3.30;;;12.40;99.90;;;;;;5004214;28;20042;-93
2022/07/15 01:06:44;;;;;;;6.78;3.17;;;12.50;99.90;;;;;;4989624;28;20133;-93
2022/07/15 01:09:11;;;;;;;8.90;2.92;;;12.50;99.90;;;;;;4986590;28;20053;-93
2022/07/15 01:11:38;;;;;;;9.63;3.15;;;12.60;99.90;;;;;;4955237;28;20729;-94
2022/07/15 01:14:20;;;;;;;7.40;2.63;;;12.60;99.90;;;;;;5005276;28;20042;-94
2022/07/15 01:16:49;;;;;;;8.73;3.45;;;12.60;99.90;;;;;;5000049;28;20077;-93
2022/07/15 01:19:18;;;;;;;10.25;2.92;;;12.60;99.90;;;;;;4987552;28;20045;-93
2022/07/15 01:21:45;;;;;;;10.75;3.00;;;12.70;99.90;;;;;;4988042;28;20050;-93
2022/07/15 01:24:18;;;;;;;7.88;2.38;;;12.80;99.90;;;;;;4970506;28;20092;-93
2022/07/15 01:26:48;;;;;;;9.50;2.95;;;12.80;99.90;;;;;;4987647;28;20402;-93
2022/07/15 01:29:18;;;;;;;12.55;3.08;;;12.80;99.90;;;;;;5004497;28;20846;-93
2022/07/15 01:31:45;;;;;;;6.78;2.45;;;12.90;99.90;;;;;;4975815;28;20049;-94
2022/07/15 01:34:12;;;;;;;10.38;3.25;;;12.90;99.90;;;;;;4996125;28;20037;-93
2022/07/15 01:36:39;;;;;;;11.15;2.83;;;13.00;99.90;;;;;;4970597;28;20116;-91
2022/07/15 01:39:06;;;;;;;11.18;2.95;;;13.00;99.90;;;;;;4982353;28;20045;-93
2022/07/15 01:41:33;;;;;;;11.25;2.53;;;13.00;99.90;;;;;;4959181;28;20042;-94
2022/07/15 01:44:01;;;;;;;10.23;3.05;;;13.10;99.90;;;;;;5011323;28;20041;-94
2022/07/15 01:46:27;;;;;;;11.48;3.00;;;13.00;99.90;;;;;;5008428;28;20046;-93
2022/07/15 01:51:44;;;;;;;7.22;2.75;;;13.00;99.90;;;;;;5012299;28;20054;-93
2022/07/15 01:54:11;;;;;;;6.50;2.58;;;13.00;99.90;;;;;;4979295;28;20306;-93
2022/07/15 01:56:40;;;;;;;6.55;2.78;;;13.00;99.90;;;;;;4997925;28;20216;-94
2022/07/15 01:59:06;;;;;;;9.45;2.53;;;13.00;99.90;;;;;;5000054;28;20033;-93
2022/07/15 02:01:33;;;;;;;10.77;2.50;;;13.00;99.90;;;;;;4976591;28;20395;-94
2022/07/15 02:04:05;;;;;;;10.00;2.72;;;13.00;99.90;;;;;;5011132;28;20037;-93
2022/07/15 02:06:31;;;;;;;11.38;2.83;;;13.00;99.90;;;;;;5005767;28;20084;-93
2022/07/15 02:08:58;;;;;;;5.95;2.55;;;13.00;99.90;;;;;;4996403;28;20042;-93
2022/07/15 02:11:28;;;;;;;10.65;2.80;;;13.00;99.90;;;;;;4991602;28;20125;-93
2022/07/15 02:13:58;;;;;;;6.90;2.40;;;13.00;99.90;;;;;;5010387;28;20354;-94
2022/07/15 02:16:30;;;;;;;10.13;3.00;;;13.00;99.90;;;;;;4998245;28;20042;-93
2022/07/15 02:19:00;;;;;;;8.48;2.53;;;13.00;99.90;;;;;;4994668;28;20068;-93
2022/07/15 02:21:26;;;;;;;10.30;2.67;;;12.90;99.90;;;;;;5009502;28;20046;-94
2022/07/15 02:23:54;;;;;;;8.80;2.40;;;12.90;99.90;;;;;;4994160;28;20138;-94
2022/07/15 02:26:21;;;;;;;10.10;2.42;;;12.80;99.90;;;;;;4996916;28;20121;-94
2022/07/15 02:28:47;;;;;;;8.50;2.40;;;12.90;99.90;;;;;;4993986;28;20476;-93
2022/07/15 02:31:14;;;;;;;9.65;2.78;;;12.80;99.90;;;;;;4991981;28;20060;-93
2022/07/15 02:33:41;;;;;;;8.30;2.65;;;12.80;99.90;;;;;;5025113;28;20046;-93
2022/07/15 02:36:10;;;;;;;9.38;2.53;;;12.80;99.90;;;;;;5010179;28;20045;-93
2022/07/15 02:38:37;;;;;;;9.18;2.58;;;12.80;99.90;;;;;;5011109;28;20042;-93
2022/07/15 02:41:04;;;;;;;8.77;2.72;;;12.70;99.90;;;;;;4980098;28;20105;-92
2022/07/15 02:43:32;;;;;;;11.20;3.08;;;12.80;99.90;;;;;;4984943;28;20042;-93
2022/07/15 02:46:00;;;;;;;9.63;2.67;;;12.70;99.90;;;;;;5008822;28;20049;-93
2022/07/15 02:48:27;;;;;;;8.50;2.70;;;12.70;99.90;;;;;;4993090;28;20163;-93
2022/07/15 02:50:54;;;;;;;8.30;3.08;;;12.60;99.90;;;;;;4972664;28;20436;-93
2022/07/15 02:53:23;;;;;;;11.32;2.50;;;12.50;99.90;;;;;;5011638;28;20045;-93
2022/07/15 02:55:50;;;;;;;12.80;2.70;;;12.50;99.90;;;;;;4992137;28;20422;-93
2022/07/15 02:58:16;;;;;;;8.05;2.67;;;12.40;99.90;;;;;;4993649;28;20045;-93
2022/07/15 03:00:42;;;;;;;11.57;3.47;;;12.40;99.90;;;;;;4997238;28;20097;-93
2022/07/15 03:03:10;;;;;;;8.40;2.45;;;12.30;99.90;;;;;;4997617;28;20130;-93
2022/07/15 03:05:41;;;;;;;13.32;2.92;;;12.20;99.90;;;;;;5024664;28;20038;-94
2022/07/15 03:08:10;;;;;;;9.07;3.03;;;12.20;99.90;;;;;;5013436;28;20046;-94
2022/07/15 03:10:36;;;;;;;13.23;2.80;;;12.10;99.90;;;;;;5013507;28;20281;-94
2022/07/15 03:13:03;;;;;;;5.97;2.63;;;12.10;99.90;;;;;;4997993;28;20037;-94
2022/07/15 03:15:32;;;;;;;9.40;2.78;;;12.00;99.90;;;;;;4997751;28;20035;-93
2022/07/15 03:17:58;;;;;;;8.38;2.53;;;11.90;99.90;;;;;;5030078;28;20021;-94
2022/07/15 03:20:29;;;;;;;7.25;2.60;;;11.90;99.90;;;;;;4998344;28;20058;-93
2022/07/15 03:23:01;;;;;;;9.50;3.03;;;11.80;99.90;;;;;;5018572;28;20240;-93
2022/07/15 03:25:34;;;;;;;7.55;2.70;;;11.80;99.90;;;;;;5019195;28;20485;-92
2022/07/15 03:28:05;;;;;;;9.43;3.20;;;11.70;99.90;;;;;;5022663;28;20045;-93
2022/07/15 03:30:35;;;;;;;10.88;2.80;;;11.60;99.90;;;;;;4987715;28;20144;-94
2022/07/15 03:33:02;;;;;;;7.85;2.28;;;11.50;99.90;;;;;;4972185;28;20141;-93
2022/07/15 03:35:29;;;;;;;9.15;3.30;;;11.40;99.90;;;;;;4993931;28;20053;-93
2022/07/15 03:37:56;;;;;;;9.23;2.80;;;11.30;99.90;;;;;;5009519;28;20069;-93
2022/07/15 03:40:35;;;;;;;9.43;2.78;;;11.30;99.90;;;;;;4966460;28;20529;-94
2022/07/15 03:43:03;;;;;;;8.32;2.70;;;11.30;99.90;;;;;;4995690;28;20136;-94
2022/07/15 03:45:32;;;;;;;9.75;2.80;;;11.20;99.90;;;;;;4991581;28;20129;-93
2022/07/15 03:47:58;;;;;;;8.40;3.10;;;11.20;99.90;;;;;;4998150;28;20080;-93
2022/07/15 03:50:24;;;;;;;12.18;3.08;;;11.10;99.90;;;;;;4993671;28;20053;-94
2022/07/15 03:52:52;;;;;;;7.72;3.25;;;11.20;99.90;;;;;;5007496;28;20761;-93
2022/07/15 03:55:23;;;;;;;10.63;3.38;;;11.20;99.90;;;;;;5009189;28;20050;-94
2022/07/15 03:57:51;;;;;;;9.65;3.45;;;11.20;99.90;;;;;;4978174;28;20044;-94
2022/07/15 04:00:17;;;;;;;12.35;3.47;;;11.20;99.90;;;;;;4976672;28;20497;-93
2022/07/15 04:02:44;;;;;;;12.02;3.50;;;11.20;99.90;;;;;;4993406;28;20052;-92
2022/07/15 04:05:12;;;;;;;10.07;3.58;;;11.20;99.90;;;;;;5028672;28;20041;-93
2022/07/15 04:07:39;;;;;;;11.55;3.25;;;11.30;99.90;;;;;;4978725;28;20053;-94
2022/07/15 04:10:07;;;;;;;10.20;3.38;;;11.20;99.90;;;;;;4977876;28;20050;-94
2022/07/15 04:12:33;;;;;;;8.23;3.45;;;11.20;99.90;;;;;;4974750;28;20452;-94
2022/07/15 04:15:00;;;;;;;7.53;3.05;;;11.20;99.90;;;;;;5007642;28;20041;-94
2022/07/15 04:17:30;;;;;;;9.48;3.40;;;11.10;99.90;;;;;;4974914;28;20100;-94
2022/07/15 04:19:56;;;;;;;9.50;3.22;;;11.10;99.90;;;;;;4975770;28;20041;-93
2022/07/15 04:22:23;;;;;;;10.52;3.20;;;11.00;99.90;;;;;;4978417;28;20072;-93
2022/07/15 04:24:50;;;;;;;9.73;2.90;;;11.00;99.90;;;;;;4975108;28;20042;-93
2022/07/15 04:27:18;;;;;;;9.50;3.22;;;11.00;99.90;;;;;;4975057;28;20045;-93
2022/07/15 04:29:45;;;;;;;7.88;3.20;;;11.10;99.90;;;;;;5025065;28;20042;-93
2022/07/15 04:32:16;;;;;;;7.25;3.63;;;11.10;99.90;;;;;;5008154;28;20046;-93
2022/07/15 04:34:47;;;;;;;11.60;4.07;;;11.20;99.90;;;;;;4990746;28;20046;-93
2022/07/15 04:37:14;;;;;;;10.48;3.30;;;11.30;99.90;;;;;;4976127;28;20816;-93
2022/07/15 04:39:45;;;;;;;12.43;3.75;;;11.30;99.90;;;;;;5007594;28;20136;-93
2022/07/15 04:42:16;;;;;;;10.10;3.45;;;11.40;99.90;;;;;;4972343;28;20102;-93
2022/07/15 04:44:45;;;;;;;8.32;3.58;;;11.40;99.90;;;;;;5008872;28;20046;-93
2022/07/15 04:47:15;;;;;;;9.23;3.53;;;11.50;99.90;;;;;;5020265;28;20038;-93
2022/07/15 04:52:34;;;;;;;10.30;3.40;;;11.60;99.90;;;;;;5006257;28;21407;-93
2022/07/15 04:55:02;;;;;;;11.45;3.90;;;11.70;99.90;;;;;;5007445;28;20601;-92
2022/07/15 04:57:32;;;;;;;9.63;3.70;;;11.70;99.90;;;;;;4986326;28;20042;-92
2022/07/15 05:00:03;;;;;;;11.00;3.83;;;11.80;99.90;;;;;;4971637;28;20289;-94
2022/07/15 05:02:44;;;;;;;11.93;3.60;;;11.90;99.90;;;;;;4987872;28;20042;-94
2022/07/15 05:05:18;;;;;;;10.55;3.30;;;12.10;99.90;;;;;;4970656;28;20068;-94
2022/07/15 05:07:45;;;;;;;10.60;3.43;;;12.20;99.90;;;;;;4988244;28;20037;-95
2022/07/15 05:10:12;;;;;;;8.25;2.97;;;12.40;99.90;;;;;;4987794;28;20154;-93
2022/07/15 05:12:44;;;;;;;8.52;2.90;;;12.60;99.90;;;;;;4986799;28;20058;-93
2022/07/15 05:15:11;;;;;;;10.13;3.28;;;12.80;99.90;;;;;;5007250;28;20132;-93
2022/07/15 05:17:41;;;;;;;8.55;2.70;;;12.90;99.90;;;;;;4989299;28;20042;-93
2022/07/15 05:20:12;;;;;;;9.98;2.63;;;13.10;99.90;;;;;;4959066;28;20038;-92
2022/07/15 05:22:38;;;;;;;10.77;2.92;;;13.20;99.90;;;;;;5005850;28;20799;-93
2022/07/15 05:25:05;;;;;;;10.38;2.95;;;13.30;99.90;;;;;;4975842;28;20034;-93
2022/07/15 05:27:32;;;;;;;7.20;2.17;;;13.40;99.90;;;;;;5008218;28;20069;-94
2022/07/15 05:29:58;;;;;;;6.95;2.30;;;13.50;99.90;;;;;;4973843;28;20125;-93
2022/07/15 05:32:25;;;;;;;7.35;2.38;;;13.50;99.90;;;;;;4990213;28;20037;-93
2022/07/15 05:34:51;;;;;;;8.02;2.28;;;13.50;99.90;;;;;;4992013;28;20042;-94
2022/07/15 05:37:19;;;;;;;7.13;2.15;;;13.50;99.90;;;;;;5003121;28;20069;-87
2022/07/15 05:39:55;;;;;;;7.32;1.95;;;13.60;99.90;;;;;;4983229;28;20061;-87
2022/07/15 05:42:44;;;;;;;5.55;1.65;;;13.60;99.90;;;;;;4967665;28;20167;-85
2022/07/15 05:45:10;;;;;;;17.98;10.45;;;13.70;99.90;;;;;;4985654;28;20487;-86
2022/07/15 05:47:48;;;;;;;5.75;2.25;;;13.70;99.90;;;;;;4968036;28;20042;-86
2022/07/15 05:50:15;;;;;;;30.98;24.08;;;13.80;99.90;;;;;;4983919;28;20100;-86
2022/07/15 05:52:41;;;;;;;11.40;5.70;;;13.80;99.90;;;;;;4988330;28;20145;-85
2022/07/15 05:55:07;;;;;;;4.88;2.20;;;13.90;99.90;;;;;;5000516;28;20037;-86
2022/07/15 05:57:34;;;;;;;17.95;10.73;;;14.00;99.90;;;;;;4951932;28;20112;-86
2022/07/15 06:00:00;;;;;;;7.03;1.80;;;14.00;99.90;;;;;;4983384;28;20041;-87
2022/07/15 06:02:30;;;;;;;6.72;1.85;;;14.10;99.90;;;;;;5016773;28;20384;-87
2022/07/15 06:04:57;;;;;;;5.65;1.48;;;14.10;99.90;;;;;;4968593;28;20119;-87
2022/07/15 06:07:23;;;;;;;6.65;1.67;;;14.20;99.90;;;;;;5027673;28;20085;-87
2022/07/15 06:09:50;;;;;;;6.35;1.38;;;14.60;99.90;;;;;;5023415;28;20125;-87
2022/07/15 06:12:19;;;;;;;7.32;2.30;;;15.20;99.90;;;;;;5018150;28;20370;-86
2022/07/15 06:14:45;;;;;;;4.97;1.80;;;15.90;99.90;;;;;;4955359;28;20132;-87
2022/07/15 06:17:15;;;;;;;8.23;3.80;;;16.50;99.90;;;;;;4980145;28;20423;-87
2022/07/15 06:19:41;;;;;;;8.80;3.05;;;16.90;99.90;;;;;;4987762;28;20049;-87
2022/07/15 06:22:08;;;;;;;17.05;10.30;;;17.10;99.90;;;;;;5022870;28;20053;-86
2022/07/15 06:24:34;;;;;;;17.98;12.65;;;17.50;99.90;;;;;;5031599;28;20050;-87
2022/07/15 06:27:00;;;;;;;9.13;5.40;;;17.60;99.90;;;;;;4993839;28;20107;-86
2022/07/15 06:29:27;;;;;;;8.35;6.22;;;17.50;99.90;;;;;;4979321;28;20046;-87
2022/07/15 06:31:54;;;;;;;7.55;3.05;;;17.60;99.90;;;;;;5032307;28;20165;-87
2022/07/15 06:34:22;;;;;;;4.70;1.55;;;17.90;99.90;;;;;;4978516;28;20054;-86
2022/07/15 06:36:48;;;;;;;5.95;1.13;;;18.10;99.90;;;;;;4957310;28;20041;-87
2022/07/15 06:39:14;;;;;;;4.88;1.38;;;18.30;99.90;;;;;;4995533;28;20038;-87
2022/07/15 06:41:40;;;;;;;5.63;2.28;;;18.50;99.90;;;;;;4994118;28;20076;-86
2022/07/15 06:44:08;;;;;;;5.05;1.58;;;18.70;99.90;;;;;;5004796;28;20037;-86
2022/07/15 06:46:41;;;;;;;5.30;1.40;;;19.00;99.90;;;;;;5025112;28;20497;-86
2022/07/15 06:49:07;;;;;;;5.00;1.67;;;19.00;99.90;;;;;;5023799;28;20056;-86
2022/07/15 06:51:33;;;;;;;15.98;12.73;;;19.10;99.90;;;;;;4993152;28;20491;-85
2022/07/15 06:54:01;;;;;;;14.40;9.75;;;19.40;99.90;;;;;;5005375;28;20065;-86
2022/07/15 06:56:30;;;;;;;9.82;5.95;;;19.30;99.90;;;;;;5002547;28;20050;-86
2022/07/15 06:58:57;;;;;;;5.82;1.00;;;19.50;99.90;;;;;;4949044;28;20121;-85
2022/07/15 07:01:23;;;;;;;9.05;7.05;;;19.60;99.90;;;;;;4972096;28;20060;-85
2022/07/15 07:03:50;;;;;;;4.88;1.35;;;19.70;99.90;;;;;;4960150;28;20045;-84
2022/07/15 07:06:17;;;;;;;3.85;1.52;;;19.90;99.90;;;;;;4994988;28;20444;-85
2022/07/15 07:08:46;;;;;;;4.00;1.50;;;20.00;99.90;;;;;;4988605;28;20065;-86
2022/07/15 07:11:14;;;;;;;5.10;1.98;;;20.00;99.90;;;;;;5006220;28;20153;-85
2022/07/15 07:13:41;;;;;;;5.90;2.55;;;20.20;99.90;;;;;;5006519;28;20054;-85
2022/07/15 07:16:07;;;;;;;2.80;0.75;;;20.20;99.90;;;;;;4977426;28;20096;-85
2022/07/15 07:18:35;;;;;;;2.47;1.15;;;20.60;99.90;;;;;;5023995;28;20100;-85
2022/07/15 07:21:01;;;;;;;5.07;1.33;;;20.80;99.90;;;;;;5008612;28;20589;-85
2022/07/15 07:23:28;;;;;;;3.50;1.95;;;21.10;99.90;;;;;;5004146;28;20464;-85
2022/07/15 07:25:55;;;;;;;3.15;0.77;;;21.00;99.90;;;;;;4954658;28;20096;-84
2022/07/15 07:28:21;;;;;;;2.70;0.52;;;21.20;99.90;;;;;;5009088;28;20061;-85
2022/07/15 07:30:49;;;;;;;36.22;32.70;;;21.10;99.90;;;;;;5019948;28;20050;-85
2022/07/15 07:33:15;;;;;;;2.80;0.82;;;21.00;99.90;;;;;;5002200;28;20053;-85
2022/07/15 07:35:43;;;;;;;7.63;3.50;;;20.70;99.90;;;;;;4982339;28;20272;-85
2022/07/15 07:38:10;;;;;;;5.05;2.50;;;20.70;99.90;;;;;;4989344;28;20037;-86
2022/07/15 07:40:37;;;;;;;11.77;9.60;;;20.50;99.90;;;;;;5036430;28;20710;-86
2022/07/15 07:43:03;;;;;;;5.40;0.90;;;20.90;99.90;;;;;;4988098;28;20073;-87
2022/07/15 07:45:29;;;;;;;3.03;0.70;;;20.60;99.90;;;;;;4992076;28;20050;-86
2022/07/15 07:47:56;;;;;;;12.30;8.65;;;20.10;99.90;;;;;;4997852;28;20100;-86
2022/07/15 07:50:23;;;;;;;3.20;1.95;;;20.20;99.90;;;;;;5019975;28;20053;-85
2022/07/15 07:52:49;;;;;;;2.83;1.08;;;19.90;99.90;;;;;;4970756;28;20112;-86
2022/07/15 07:55:15;;;;;;;4.43;3.85;;;19.60;99.90;;;;;;4984364;28;20042;-86
2022/07/15 07:57:49;;;;;;;2.28;0.47;;;19.50;99.90;;;;;;5004220;28;20044;-86
2022/07/15 08:00:17;;;;;;;2.53;0.85;;;20.00;99.90;;;;;;5032459;28;20042;-85
2022/07/15 08:02:43;;;;;;;1.50;0.70;;;20.50;99.90;;;;;;5003392;28;20057;-86
2022/07/15 08:05:11;;;;;;;3.00;0.85;;;20.90;99.90;;;;;;4988103;28;20042;-85
2022/07/15 08:07:38;;;;;;;5.15;3.08;;;21.20;99.90;;;;;;4969477;28;20330;-85
2022/07/15 08:10:05;;;;;;;21.98;19.75;;;21.30;99.90;;;;;;4972843;28;20038;-86
2022/07/15 08:12:31;;;;;;;2.15;0.40;;;21.40;99.90;;;;;;4954726;28;20042;-86
2022/07/15 08:14:57;;;;;;;2.72;0.70;;;21.20;99.90;;;;;;5006333;28;20128;-86
2022/07/15 08:17:25;;;;;;;1.90;0.38;;;21.30;99.90;;;;;;4972431;28;20281;-85
2022/07/15 08:19:51;;;;;;;2.92;0.50;;;21.80;99.90;;;;;;4989778;28;20045;-85
2022/07/15 08:22:18;;;;;;;3.30;1.02;;;22.10;99.90;;;;;;5018982;28;20053;-80
2022/07/15 08:24:45;;;;;;;2.83;0.52;;;22.30;99.90;;;;;;4978313;28;20041;-86
2022/07/15 08:27:11;;;;;;;4.45;2.95;;;22.20;99.90;;;;;;5021737;28;20574;-86
2022/07/15 08:29:38;;;;;;;3.92;2.58;;;21.70;99.90;;;;;;5008125;28;20053;-86
2022/07/15 08:32:04;;;;;;;2.13;0.55;;;21.00;99.90;;;;;;4982930;28;20045;-85
2022/07/15 08:34:32;;;;;;;1.25;0.40;;;20.70;99.90;;;;;;4986535;28;20058;-85
2022/07/15 08:37:00;;;;;;;3.45;1.50;;;20.40;99.90;;;;;;4990771;28;20242;-86
2022/07/15 08:39:26;;;;;;;3.03;0.52;;;20.70;99.90;;;;;;5011965;28;20041;-85
2022/07/15 08:41:52;;;;;;;1.63;0.55;;;21.10;99.90;;;;;;4991591;28;20627;-85
2022/07/15 08:44:18;;;;;;;2.92;1.27;;;21.40;99.90;;;;;;5004517;28;20060;-86
2022/07/15 08:46:47;;;;;;;9.30;6.85;;;21.70;98.50;;;;;;5008257;28;20388;-85
2022/07/15 08:49:16;;;;;;;7.63;4.47;;;21.60;98.70;;;;;;5007747;28;20052;-86
2022/07/15 08:51:45;;;;;;;22.48;17.67;;;21.30;97.80;;;;;;5002317;28;20057;-86
2022/07/15 08:54:13;;;;;;;7.18;5.28;;;21.20;97.90;;;;;;5021438;28;20120;-85
2022/07/15 08:56:40;;;;;;;1.42;0.22;;;20.90;99.80;;;;;;5021775;28;20072;-85
2022/07/15 08:59:07;;;;;;;2.55;0.95;;;20.90;99.90;;;;;;4988103;28;20042;-85
2022/07/15 09:01:40;;;;;;;1.67;0.40;;;20.90;96.40;;;;;;4972883;28;20045;-85
2022/07/15 09:04:06;;;;;;;2.03;1.05;;;21.40;97.40;;;;;;4988659;28;20056;-86
2022/07/15 09:06:40;;;;;;;2.63;0.52;;;22.10;97.60;;;;;;5037223;28;20050;-85
2022/07/15 09:09:42;;;;;;;1.35;0.50;;;22.60;96.80;;;;;;5005892;28;20131;-85
2022/07/15 09:12:11;;;;;;;3.45;0.55;;;22.00;92.20;;;;;;4936270;28;20708;-86
2022/07/15 09:14:41;;;;;;;1.45;0.60;;;21.50;93.20;;;;;;4965204;28;20391;-85
2022/07/15 09:17:10;;;;;;;2.88;0.40;;;21.80;94.10;;;;;;5008164;28;20580;-86
2022/07/15 09:19:55;;;;;;;1.67;0.65;;;22.70;94.00;;;;;;4989587;28;20049;-85
2022/07/15 09:22:21;;;;;;;2.17;0.95;;;23.20;89.10;;;;;;5001399;28;20053;-85
2022/07/15 09:25:09;;;;;;;2.65;1.02;;;23.40;90.60;;;;;;4955609;28;20077;-85
2022/07/15 09:27:41;;;;;;;2.00;0.63;;;23.30;82.90;;;;;;5039784;28;20046;-85
2022/07/15 09:36:03;;;;;;;1.67;0.85;;;21.70;89.60;;;;;;4998133;28;20065;-85
2022/07/15 09:38:40;;;;;;;2.30;0.60;;;21.50;91.30;;;;;;5016407;28;20557;-86
2022/07/15 09:41:13;;;;;;;1.75;0.30;;;21.30;92.50;;;;;;5020176;28;20396;-86
2022/07/15 09:43:45;;;;;;;8.68;6.28;;;21.00;92.10;;;;;;5004055;28;20046;-85
2022/07/15 09:46:11;;;;;;;4.97;3.03;;;21.10;92.50;;;;;;4975722;28;20581;-85
2022/07/15 09:48:42;;;;;;;5.00;1.25;;;21.10;93.90;;;;;;4984791;28;20125;-85
2022/07/15 09:51:09;;;;;;;2.65;0.47;;;21.10;95.90;;;;;;4970144;28;20049;-84
2022/07/15 09:53:36;;;;;;;2.22;0.82;;;20.90;96.90;;;;;;5003513;28;20492;-85
2022/07/15 09:56:06;;;;;;;5.40;3.28;;;21.20;95.80;;;;;;4987652;28;20042;-85
2022/07/15 09:58:32;;;;;;;2.63;0.60;;;21.20;96.10;;;;;;5003946;28;20441;-85
2022/07/15 10:00:59;;;;;;;1.48;0.57;;;21.60;96.50;;;;;;5003178;28;20056;-85
2022/07/15 10:03:26;;;;;;;1.75;0.52;;;21.80;95.80;;;;;;4990529;28;20042;-86
2022/07/15 10:05:56;;;;;;;4.18;1.08;;;21.90;95.30;;;;;;4973971;28;20131;-85
2022/07/15 10:08:24;;;;;;;2.63;0.63;;;22.00;96.00;;;;;;4990855;28;20145;-86
2022/07/15 10:10:51;;;;;;;1.35;0.25;;;22.30;94.70;;;;;;4973672;28;20057;-85
2022/07/15 10:13:29;;;;;;;1.38;0.30;;;22.40;94.30;;;;;;5032609;28;20136;-85
2022/07/15 10:16:15;;;;;;;1.60;0.30;;;22.20;91.40;;;;;;4988816;28;20042;-86
2022/07/15 10:19:02;;;;;;;1.85;0.70;;;22.60;92.20;;;;;;5021972;28;20042;-86
2022/07/15 10:22:14;;;;;;;0.80;0.30;;;22.60;92.80;;;;;;5007280;28;20137;-86
2022/07/15 10:25:22;;;;;;;2.60;0.38;;;22.70;92.10;;;;;;4976462;28;20870;-86
2022/07/15 10:28:22;;;;;;;1.20;0.50;;;22.90;92.20;;;;;;4989767;28;20060;-85
2022/07/15 10:31:16;;;;;;;1.10;0.30;;;23.10;92.00;;;;;;5040026;28;20223;-86
2022/07/15 10:33:42;;;;;;;1.52;0.50;;;23.10;89.60;;;;;;4999025;28;20440;-85
2022/07/15 10:36:09;;;;;;;3.78;0.50;;;23.20;91.60;;;;;;4974722;28;20042;-86
2022/07/15 10:38:38;;;;;;;2.67;0.40;;;22.90;90.40;;;;;;5043070;28;20050;-86
2022/07/15 10:41:11;;;;;;;1.23;0.30;;;22.60;91.10;;;;;;5008267;28;20401;-87
2022/07/15 10:43:51;;;;;;;3.25;0.52;;;21.90;91.30;;;;;;5024410;28;20092;-87
2022/07/15 10:46:19;;;;;;;2.53;0.32;;;21.60;94.00;;;;;;5022329;28;20077;-86
2022/07/15 10:48:50;;;;;;;2.97;0.50;;;21.30;95.10;;;;;;5025199;28;20502;-86
2022/07/15 10:51:35;;;;;;;2.05;0.40;;;21.10;97.10;;;;;;4990653;28;20046;-86
2022/07/15 10:54:05;;;;;;;1.52;0.50;;;21.00;99.30;;;;;;5008615;28;20456;-87
2022/07/15 10:56:36;;;;;;;7.70;0.93;;;20.90;99.60;;;;;;5012094;28;20053;-86
2022/07/15 10:59:14;;;;;;;2.45;0.45;;;21.00;99.30;;;;;;4989705;28;20046;-86
2022/07/15 11:01:43;;;;;;;2.60;0.70;;;21.10;99.90;;;;;;5037016;28;20049;-86
2022/07/15 11:04:17;;;;;;;2.08;0.50;;;21.50;99.90;;;;;;4988384;28;20042;-85
2022/07/15 11:07:02;;;;;;;13.35;11.23;;;22.20;98.10;;;;;;5004710;28;20497;-86
2022/07/15 11:09:53;;;;;;;3.75;0.98;;;23.30;93.60;;;;;;4988117;28;20058;-86
2022/07/15 11:12:22;;;;;;;6.35;3.15;;;23.50;91.00;;;;;;5037044;28;20042;-86
2022/07/15 11:14:54;;;;;;;2.88;0.95;;;23.50;85.20;;;;;;5005229;28;20493;-86
2022/07/15 11:17:29;;;;;;;3.85;1.75;;;23.00;88.30;;;;;;4995440;28;20379;-86
2022/07/15 11:20:08;;;;;;;5.70;3.60;;;23.30;87.50;;;;;;4987150;28;20083;-86
2022/07/15 11:22:36;;;;;;;3.17;0.57;;;23.00;87.80;;;;;;4999791;28;20054;-84
2022/07/15 11:25:04;;;;;;;3.70;0.73;;;23.20;86.60;;;;;;5003147;28;20046;-86
2022/07/15 11:27:30;;;;;;;3.10;0.52;;;23.10;90.40;;;;;;4992358;28;20464;-87
2022/07/15 11:30:03;;;;;;;2.60;0.90;;;22.70;90.70;;;;;;4989781;28;20045;-86
2022/07/15 11:32:32;;;;;;;1.75;0.30;;;22.60;91.60;;;;;;4987700;28;20053;-87
2022/07/15 11:35:02;;;;;;;2.55;0.60;;;22.50;92.10;;;;;;5003751;28;20046;-86
2022/07/15 11:37:33;;;;;;;1.42;0.50;;;22.00;94.70;;;;;;4985455;28;20463;-86
2022/07/15 11:44:29;;;;;;;;;;;22.50;94.80;;;;;;4987375;28;20458;-86
2022/07/15 11:45:46;;;;;;;1.27;0.38;;;23.80;90.40;;;;;;4986637;28;20153;-86
2022/07/15 11:48:13;;;;;;;3.63;0.55;;;24.10;89.00;;;;;;5002702;28;20128;-86
2022/07/15 11:50:56;;;;;;;3.20;0.43;;;24.90;83.70;;;;;;5005306;28;20519;-86
2022/07/15 11:53:24;;;;;;;2.20;0.50;;;24.80;74.90;;;;;;5021351;28;20054;-86
2022/07/15 11:55:53;;;;;;;2.20;0.30;;;24.40;76.80;;;;;;5018945;28;20466;-86
2022/07/15 11:58:32;;;;;;;3.60;0.25;;;24.20;75.30;;;;;;4986176;28;20145;-86
2022/07/15 12:00:59;;;;;;;3.72;0.43;;;23.80;79.90;;;;;;5010241;28;20148;-86
2022/07/15 12:03:34;;;;;;;4.25;0.47;;;23.50;82.70;;;;;;5000878;28;20432;-85
2022/07/15 12:06:09;;;;;;;4.32;0.60;;;23.30;85.90;;;;;;4997338;28;20046;-86
2022/07/15 12:08:53;;;;;;;2.63;1.08;;;22.80;88.60;;;;;;5004746;28;20587;-86
2022/07/15 12:11:26;;;;;;;3.88;0.80;;;22.50;90.50;;;;;;5014074;28;20523;-85
2022/07/15 12:14:05;;;;;;;2.40;0.77;;;22.30;90.70;;;;;;5000259;28;20611;-86
2022/07/15 12:16:32;;;;;;;4.47;1.10;;;22.40;91.60;;;;;;5034617;28;20050;-86
2022/07/15 12:19:02;;;;;;;2.45;0.40;;;22.20;91.70;;;;;;5010715;28;20314;-85
2022/07/15 12:21:29;;;;;;;6.75;1.63;;;22.10;92.40;;;;;;5002734;28;20057;-86
2022/07/15 12:24:20;;;;;;;2.55;1.10;;;22.00;93.40;;;;;;5019219;28;20077;-86
2022/07/15 12:26:49;;;;;;;1.97;0.30;;;22.00;93.00;;;;;;4982541;28;20057;-85
2022/07/15 12:29:20;;;;;;;2.05;0.40;;;21.90;92.70;;;;;;4991198;28;20372;-85
2022/07/15 12:32:06;;;;;;;2.25;0.45;;;22.00;92.80;;;;;;4953440;28;20376;-85
2022/07/15 12:35:04;;;;;;;2.38;0.47;;;22.30;91.40;;;;;;4984717;28;20077;-85
2022/07/15 12:37:30;;;;;;;3.95;0.70;;;22.60;90.60;;;;;;4977367;28;20420;-85
2022/07/15 12:40:08;;;;;;;1.95;0.55;;;22.80;88.10;;;;;;4960436;28;20579;-85
2022/07/15 12:42:49;;;;;;;2.67;0.60;;;23.10;87.30;;;;;;4985844;28;20048;-85
2022/07/15 12:45:20;;;;;;;1.13;0.60;;;23.00;87.20;;;;;;4982750;28;20041;-85
2022/07/15 12:48:07;;;;;;;3.47;0.60;;;22.80;89.20;;;;;;4993768;28;20308;-85
2022/07/15 12:50:57;;;;;;;3.72;0.55;;;22.60;92.50;;;;;;4968916;28;20049;-85
2022/07/15 12:53:26;;;;;;;4.43;0.50;;;22.40;93.50;;;;;;4990515;28;20045;-86
2022/07/15 12:55:57;;;;;;;2.92;0.50;;;22.20;91.90;;;;;;5002356;28;20053;-85
2022/07/15 12:58:25;;;;;;;;;;;22.10;88.70;;;;;;4982038;28;20057;-84
2022/07/15 13:00:51;;;;;;;1.30;0.30;;;22.00;90.80;;;;;;4970915;28;19929;-85
2022/07/15 13:03:20;;;;;;;1.50;0.70;;;22.10;89.40;;;;;;4982713;28;20172;-85
2022/07/15 13:05:51;;;;;;;3.47;0.82;;;22.50;90.50;;;;;;4982922;28;20041;-85
2022/07/15 13:08:28;;;;;;;3.67;0.52;;;22.60;88.80;;;;;;4973182;28;20049;-85
2022/07/15 13:10:58;;;;;;;2.05;0.50;;;22.40;86.70;;;;;;5001728;28;20046;-85
2022/07/15 13:13:28;;;;;;;1.98;0.65;;;22.50;89.10;;;;;;5003742;28;20116;-85
2022/07/15 13:15:54;;;;;;;4.97;1.25;;;22.80;86.10;;;;;;5020737;28;20074;-85
2022/07/15 13:18:21;;;;;;;1.05;0.30;;;22.90;82.70;;;;;;4988115;28;20041;-86